Time;durP1;ratioP1;P1;durP2;ratioP2;P2;SDS_P1;SDS_P2;PMS_P1;PMS_P2;Temp;Humidity;BMP_temperature;BMP_pressure;BME280_temperature;BME280_humidity;BME280_pressure;Samples;Min_cycle;Max_cycle;Signal;HPM_P1;HPM_P2
2021/11/21 00:00:09;;;;;;;38.42;24.35;;;128.60;2252.80;;;;;;5031925;28;20141;-57
2021/11/21 00:02:35;;;;;;;42.55;25.52;;;128.60;2252.80;;;;;;5031821;28;20045;-57
2021/11/21 00:05:01;;;;;;;38.00;23.10;;;128.50;2252.80;;;;;;5031755;28;20025;-58
2021/11/21 00:07:26;;;;;;;43.88;26.17;;;128.50;2252.80;;;;;;5032017;28;20026;-57
2021/11/21 00:09:52;;;;;;;64.75;37.30;;;128.50;2252.80;;;;;;5031719;28;20017;-57
2021/11/21 00:12:18;;;;;;;59.85;40.42;;;128.40;2252.80;;;;;;5032117;28;20034;-57
2021/11/21 00:14:44;;;;;;;145.07;79.93;;;128.30;2252.80;;;;;;5031606;28;20468;-57
2021/11/21 00:17:11;;;;;;;92.32;51.45;;;128.30;2252.80;;;;;;5031872;28;20040;-57
2021/11/21 00:19:39;;;;;;;76.68;46.03;;;128.40;2252.80;;;;;;5032069;28;20022;-57
2021/11/21 00:22:05;;;;;;;132.35;75.03;;;128.30;2252.80;;;;;;5031815;28;20037;-57
2021/11/21 00:24:31;;;;;;;140.25;80.38;;;128.50;2252.80;;;;;;5031693;28;20022;-57
2021/11/21 00:26:56;;;;;;;116.53;68.05;;;128.50;2252.80;;;;;;5031726;28;20030;-56
2021/11/21 00:29:22;;;;;;;129.85;80.53;;;128.50;2252.80;;;;;;5031347;28;20034;-57
2021/11/21 00:31:48;;;;;;;139.98;84.20;;;128.50;2252.80;;;;;;5031644;28;20494;-57
2021/11/21 00:34:14;;;;;;;93.15;53.10;;;128.60;2252.80;;;;;;5031333;28;20029;-57
2021/11/21 00:36:40;;;;;;;79.05;41.55;;;128.40;2252.80;;;;;;5031589;28;20030;-56
2021/11/21 00:39:05;;;;;;;100.03;56.42;;;128.30;2252.80;;;;;;5031547;28;20026;-56
2021/11/21 00:41:31;;;;;;;106.82;59.95;;;128.40;2252.80;;;;;;5031146;28;20073;-56
2021/11/21 00:43:57;;;;;;;103.95;57.97;;;128.40;2252.80;;;;;;5031424;28;20018;-57
2021/11/21 00:46:23;;;;;;;88.68;52.15;;;128.40;2252.80;;;;;;5031082;28;20472;-57
2021/11/21 00:48:49;;;;;;;106.28;55.72;;;128.50;2252.80;;;;;;5031273;28;20028;-56
2021/11/21 00:51:18;;;;;;;79.32;44.20;;;128.40;2252.80;;;;;;5031142;28;20080;-57
2021/11/21 00:53:44;;;;;;;80.65;44.95;;;128.50;2252.80;;;;;;5030933;28;20056;-57
2021/11/21 00:56:10;;;;;;;87.85;49.42;;;128.50;2252.80;;;;;;5031121;28;20068;-56
2021/11/21 00:58:37;;;;;;;128.15;74.43;;;128.50;2252.80;;;;;;5031061;28;20025;-56
2021/11/21 01:01:07;;;;;;;150.25;85.78;;;128.40;2252.80;;;;;;5030711;28;20118;-56
2021/11/21 01:03:33;;;;;;;156.15;84.53;;;128.40;2252.80;;;;;;5030848;28;20026;-56
2021/11/21 01:05:59;;;;;;;118.18;72.60;;;128.30;2252.80;;;;;;5030861;28;20159;-56
2021/11/21 01:08:26;;;;;;;159.90;84.22;;;128.40;2252.80;;;;;;5031093;28;20404;-56
2021/11/21 01:10:57;;;;;;;164.55;89.35;;;128.50;2252.80;;;;;;5030635;28;20048;-56
2021/11/21 01:13:24;;;;;;;132.98;73.45;;;128.50;2252.80;;;;;;5030515;28;20130;-56
2021/11/21 01:15:50;;;;;;;141.07;76.75;;;128.40;2252.80;;;;;;5030056;28;20041;-56
2021/11/21 01:18:17;;;;;;;67.80;42.42;;;128.30;2252.80;;;;;;5030797;28;20037;-56
2021/11/21 01:20:42;;;;;;;101.95;55.08;;;128.20;2252.80;;;;;;5030340;28;20133;-56
2021/11/21 01:23:12;;;;;;;188.85;101.35;;;128.10;2252.80;;;;;;5030794;28;20096;-56
2021/11/21 01:25:38;;;;;;;143.32;83.85;;;128.10;2252.80;;;;;;5030851;28;20386;-56
2021/11/21 01:28:05;;;;;;;106.32;60.50;;;128.10;2252.80;;;;;;5030336;28;20484;-56
2021/11/21 01:30:31;;;;;;;88.07;54.22;;;128.10;2252.80;;;;;;5030137;28;20087;-57
2021/11/21 01:32:59;;;;;;;96.88;54.08;;;128.10;2252.80;;;;;;5030407;28;20446;-56
2021/11/21 01:35:26;;;;;;;77.35;44.40;;;128.10;2252.80;;;;;;5030105;28;20083;-56
2021/11/21 01:37:52;;;;;;;69.85;39.13;;;128.00;2252.80;;;;;;5030352;28;20026;-56
2021/11/21 01:40:19;;;;;;;51.08;33.45;;;128.00;2252.80;;;;;;5030339;28;20095;-55
2021/11/21 01:42:47;;;;;;;47.30;27.77;;;103.30;2227.20;;;;;;5030418;28;20032;-56
2021/11/21 01:45:13;;;;;;;40.75;26.35;;;103.30;2227.20;;;;;;5030185;28;20041;-56
2021/11/21 01:47:42;;;;;;;43.47;29.75;;;103.00;2227.20;;;;;;5030291;28;20029;-56
2021/11/21 01:50:12;;;;;;;45.47;28.45;;;103.10;2227.20;;;;;;5030316;28;20037;-56
2021/11/21 01:52:38;;;;;;;44.92;26.45;;;103.20;2227.20;;;;;;5030347;28;20033;-56
2021/11/21 01:55:05;;;;;;;74.72;36.88;;;103.00;2227.20;;;;;;5030062;28;20026;-56
2021/11/21 01:57:31;;;;;;;102.07;49.78;;;103.20;2227.20;;;;;;5029934;28;20472;-57
2021/11/21 02:00:01;;;;;;;85.75;42.63;;;103.20;2227.20;;;;;;5029678;28;20203;-56
2021/11/21 02:02:28;;;;;;;62.88;30.83;;;103.30;2227.20;;;;;;5029929;28;20038;-56
2021/11/21 02:04:53;;;;;;;56.88;30.88;;;103.30;2227.20;;;;;;5029925;28;20018;-56
2021/11/21 02:07:19;;;;;;;85.20;50.45;;;103.30;2227.20;;;;;;5030336;28;20029;-56
2021/11/21 02:09:45;;;;;;;189.40;94.47;;;103.30;2227.20;;;;;;5030088;28;20026;-56
2021/11/21 02:12:11;;;;;;;104.20;56.33;;;103.30;2227.20;;;;;;5029895;28;20460;-56
2021/11/21 02:14:38;;;;;;;84.95;48.17;;;103.30;2227.20;;;;;;5030046;28;20103;-56
2021/11/21 02:17:04;;;;;;;118.97;69.15;;;103.30;2227.20;;;;;;5029742;28;20029;-57
2021/11/21 02:19:29;;;;;;;107.72;59.60;;;103.30;2227.20;;;;;;5029981;28;20025;-56
2021/11/21 02:21:55;;;;;;;127.53;64.75;;;128.00;2252.80;;;;;;5029920;28;20041;-59
2021/11/21 02:24:21;;;;;;;79.90;41.85;;;103.30;2227.20;;;;;;5030009;28;20075;-57
2021/11/21 02:26:47;;;;;;;49.92;31.08;;;103.30;2227.20;;;;;;5030262;28;20471;-57
2021/11/21 02:29:13;;;;;;;44.63;28.08;;;103.30;2227.20;;;;;;5033510;28;20030;-57
2021/11/21 02:31:39;;;;;;;44.75;26.45;;;103.30;2227.20;;;;;;5033968;28;20551;-57
2021/11/21 02:34:05;;;;;;;36.33;21.35;;;103.30;2227.20;;;;;;5033922;28;20176;-56
2021/11/21 02:36:32;;;;;;;52.22;30.75;;;103.30;2227.20;;;;;;5033810;28;20379;-56
2021/11/21 02:38:57;;;;;;;133.35;57.35;;;103.10;2227.20;;;;;;5033636;28;20116;-57
2021/11/21 02:41:23;;;;;;;51.47;26.38;;;103.00;2227.20;;;;;;5033393;28;20113;-56
2021/11/21 02:43:49;;;;;;;50.28;28.52;;;103.00;2227.20;;;;;;5033454;28;20464;-56
2021/11/21 02:46:16;;;;;;;38.70;20.83;;;103.00;2227.20;;;;;;5033465;28;20173;-57
2021/11/21 02:48:43;;;;;;;36.22;22.55;;;103.00;2227.20;;;;;;5033274;28;20471;-57
2021/11/21 02:51:10;;;;;;;36.28;18.05;;;103.00;2227.20;;;;;;5033591;28;20032;-57
2021/11/21 02:53:38;;;;;;;27.65;18.52;;;103.10;2227.20;;;;;;5033443;28;20034;-57
2021/11/21 02:56:08;;;;;;;40.30;24.92;;;103.10;2227.20;;;;;;5033222;28;20064;-57
2021/11/21 02:58:35;;;;;;;73.60;35.25;;;103.00;2227.20;;;;;;5033011;28;20029;-57
2021/11/21 03:01:09;;;;;;;69.93;34.35;;;103.10;2227.20;;;;;;5032690;28;20049;-57
2021/11/21 03:03:35;;;;;;;48.28;24.88;;;103.10;2227.20;;;;;;5033266;28;20024;-57
2021/11/21 03:06:00;;;;;;;37.40;19.58;;;103.00;2227.20;;;;;;5033151;28;20392;-58
2021/11/21 03:08:26;;;;;;;28.80;19.40;;;102.80;2227.20;;;;;;5033371;28;20037;-56
2021/11/21 03:10:54;;;;;;;36.05;22.17;;;102.60;2227.20;;;;;;5033060;28;20026;-57
2021/11/21 03:13:20;;;;;;;35.72;22.42;;;102.70;2227.20;;;;;;5033218;28;20491;-56
2021/11/21 03:15:46;;;;;;;30.50;21.80;;;102.60;2227.20;;;;;;5033123;28;20108;-56
2021/11/21 03:18:12;;;;;;;35.70;20.13;;;102.60;2227.20;;;;;;5032767;28;20033;-57
2021/11/21 03:20:38;;;;;;;32.47;20.25;;;102.60;2227.20;;;;;;5032869;28;20044;-56
2021/11/21 03:23:06;;;;;;;37.38;20.88;;;102.60;2227.20;;;;;;5032881;28;20033;-56
2021/11/21 03:25:32;;;;;;;87.60;41.35;;;102.60;2227.20;;;;;;5032898;28;20029;-56
2021/11/21 03:27:58;;;;;;;64.38;35.25;;;102.70;2227.20;;;;;;5032817;28;20467;-56
2021/11/21 03:30:25;;;;;;;67.57;37.17;;;102.70;2227.20;;;;;;5032318;28;20063;-56
2021/11/21 03:32:52;;;;;;;90.03;49.53;;;102.80;2227.20;;;;;;5032517;28;20087;-56
2021/11/21 03:35:18;;;;;;;92.70;48.92;;;102.80;2227.20;;;;;;5032647;28;20029;-56
2021/11/21 03:37:44;;;;;;;118.57;56.50;;;102.90;2227.20;;;;;;5031991;28;20388;-56
2021/11/21 03:40:13;;;;;;;108.45;51.85;;;102.90;2227.20;;;;;;5032734;28;20028;-56
2021/11/21 03:42:40;;;;;;;93.15;43.03;;;102.80;2227.20;;;;;;5032686;28;20057;-56
2021/11/21 03:45:07;;;;;;;57.00;30.65;;;102.90;2227.20;;;;;;5032649;28;20026;-56
2021/11/21 03:47:33;;;;;;;47.55;25.10;;;102.90;2227.20;;;;;;5032240;28;20028;-57
2021/11/21 03:49:59;;;;;;;37.45;20.42;;;102.90;2227.20;;;;;;5032550;28;20037;-57
2021/11/21 03:52:24;;;;;;;29.13;17.27;;;102.80;2227.20;;;;;;5032243;28;20025;-57
2021/11/21 03:54:50;;;;;;;50.33;25.55;;;102.80;2227.20;;;;;;5032054;28;20052;-56
2021/11/21 03:57:16;;;;;;;48.35;26.40;;;102.70;2227.20;;;;;;5032264;28;20022;-57
2021/11/21 03:59:42;;;;;;;109.15;50.55;;;102.70;2227.20;;;;;;5031502;28;20025;-57
2021/11/21 04:02:08;;;;;;;106.32;55.90;;;102.80;2227.20;;;;;;5032203;28;20403;-56
2021/11/21 04:04:33;;;;;;;53.75;30.83;;;102.80;2227.20;;;;;;5031970;28;20022;-56
2021/11/21 04:06:59;;;;;;;160.68;115.28;;;102.70;2227.20;;;;;;5032189;28;20036;-56
2021/11/21 04:09:26;;;;;;;83.32;49.90;;;102.70;2227.20;;;;;;5032164;28;20088;-56
2021/11/21 04:11:52;;;;;;;58.78;32.38;;;102.70;2227.20;;;;;;5031859;28;20032;-56
2021/11/21 04:14:19;;;;;;;37.92;24.17;;;102.70;2227.20;;;;;;5031812;28;20032;-56
2021/11/21 04:16:46;;;;;;;28.50;18.25;;;102.60;2227.20;;;;;;5031716;28;20022;-56
2021/11/21 04:19:12;;;;;;;31.67;21.13;;;102.60;2227.20;;;;;;5031972;28;20376;-57
2021/11/21 04:21:39;;;;;;;32.70;18.77;;;102.70;2227.20;;;;;;5032046;28;20456;-56
2021/11/21 04:24:06;;;;;;;33.42;22.15;;;102.70;2227.20;;;;;;5031730;28;20022;-56
2021/11/21 04:26:32;;;;;;;34.63;22.40;;;102.50;2227.20;;;;;;5031571;28;20033;-56
2021/11/21 04:28:58;;;;;;;49.70;25.98;;;102.50;2227.20;;;;;;5031455;28;20028;-56
2021/11/21 04:31:24;;;;;;;30.15;18.48;;;102.50;2227.20;;;;;;5031423;28;20030;-56
2021/11/21 04:33:49;;;;;;;41.42;24.75;;;102.50;2227.20;;;;;;5031530;28;20048;-56
2021/11/21 04:36:15;;;;;;;30.65;19.90;;;102.50;2227.20;;;;;;5031894;28;20034;-56
2021/11/21 04:38:41;;;;;;;35.45;21.38;;;77.70;2227.20;;;;;;5031475;28;20021;-57
2021/11/21 04:41:07;;;;;;;63.83;44.03;;;77.60;2227.20;;;;;;5031879;28;20097;-56
2021/11/21 04:43:32;;;;;;;68.78;36.60;;;77.70;2227.20;;;;;;5031130;28;20387;-56
2021/11/21 04:45:58;;;;;;;69.78;43.15;;;77.60;2227.20;;;;;;5031239;28;20136;-56
2021/11/21 04:48:25;;;;;;;40.70;25.33;;;77.60;2227.20;;;;;;5030972;28;20029;-56
2021/11/21 04:50:52;;;;;;;38.33;26.20;;;77.70;2227.20;;;;;;5030422;28;20160;-56
2021/11/21 04:53:18;;;;;;;87.90;45.13;;;77.70;2227.20;;;;;;5031130;28;20541;-56
2021/11/21 04:55:44;;;;;;;70.57;47.85;;;77.70;2227.20;;;;;;5031004;28;20036;-56
2021/11/21 04:58:10;;;;;;;51.92;34.08;;;77.70;2227.20;;;;;;5031283;28;20025;-56
2021/11/21 05:00:36;;;;;;;54.72;34.97;;;102.40;2227.20;;;;;;5030637;28;20087;-56
2021/11/21 05:03:01;;;;;;;60.38;42.10;;;102.40;2227.20;;;;;;5030749;28;20052;-56
2021/11/21 05:05:27;;;;;;;47.25;38.97;;;102.40;2227.20;;;;;;5030929;28;20029;-56
2021/11/21 05:07:54;;;;;;;51.08;38.58;;;102.50;2227.20;;;;;;5030651;28;20033;-56
2021/11/21 05:10:20;;;;;;;47.05;32.90;;;102.60;2227.20;;;;;;5031127;28;20025;-56
2021/11/21 05:12:46;;;;;;;59.55;37.13;;;102.50;2227.20;;;;;;5031262;28;20043;-55
2021/11/21 05:15:20;;;;;;;41.20;28.20;;;102.50;2227.20;;;;;;5030580;28;20108;-56
2021/11/21 05:17:48;;;;;;;37.45;27.15;;;102.50;2227.20;;;;;;5030862;28;20530;-56
2021/11/21 05:20:15;;;;;;;44.80;31.80;;;102.50;2227.20;;;;;;5030424;28;20113;-56
2021/11/21 05:22:41;;;;;;;52.72;33.03;;;102.60;2227.20;;;;;;5030508;28;20029;-56
2021/11/21 05:25:08;;;;;;;40.78;25.95;;;102.60;2227.20;;;;;;5030734;28;20417;-56
2021/11/21 05:27:34;;;;;;;30.20;20.15;;;102.60;2227.20;;;;;;5030504;28;20029;-56
2021/11/21 05:30:00;;;;;;;21.95;13.75;;;102.50;2227.20;;;;;;5030391;28;20476;-56
2021/11/21 05:32:26;;;;;;;29.55;16.00;;;102.40;2227.20;;;;;;5030569;28;20079;-56
2021/11/21 05:34:53;;;;;;;26.05;16.30;;;77.70;2227.20;;;;;;5030592;28;20041;-56
2021/11/21 05:37:19;;;;;;;23.52;15.10;;;77.50;2227.20;;;;;;5030526;28;20025;-55
2021/11/21 05:39:44;;;;;;;22.70;14.80;;;77.50;2227.20;;;;;;5030643;28;20134;-56
2021/11/21 05:42:10;;;;;;;26.60;15.93;;;77.60;2227.20;;;;;;5030105;28;20064;-56
2021/11/21 05:44:36;;;;;;;27.30;16.30;;;77.70;2227.20;;;;;;5030389;28;20052;-56
2021/11/21 05:47:02;;;;;;;30.20;18.20;;;77.70;2227.20;;;;;;5029985;28;20369;-56
2021/11/21 05:49:28;;;;;;;70.00;42.13;;;77.70;2227.20;;;;;;5030290;28;20025;-56
2021/11/21 05:51:54;;;;;;;80.70;45.55;;;102.40;2227.20;;;;;;5030028;28;20045;-56
2021/11/21 05:54:20;;;;;;;64.40;37.70;;;102.40;2227.20;;;;;;5030030;28;20032;-57
2021/11/21 05:56:45;;;;;;;40.17;24.95;;;102.50;2227.20;;;;;;5030335;28;20043;-55
2021/11/21 05:59:11;;;;;;;52.40;33.05;;;102.50;2227.20;;;;;;5029861;28;20486;-56
2021/11/21 06:01:37;;;;;;;36.67;23.17;;;102.50;2227.20;;;;;;5029846;28;20057;-56
2021/11/21 06:04:03;;;;;;;26.40;16.80;;;102.50;2227.20;;;;;;5029827;28;20434;-57
2021/11/21 06:06:29;;;;;;;28.63;18.23;;;102.60;2227.20;;;;;;5030145;28;20418;-56
2021/11/21 06:08:55;;;;;;;25.50;16.85;;;102.60;2227.20;;;;;;5030172;28;20043;-56
2021/11/21 06:11:20;;;;;;;23.42;14.43;;;102.60;2227.20;;;;;;5029919;28;20030;-56
2021/11/21 06:13:46;;;;;;;24.15;15.38;;;102.60;2227.20;;;;;;5030108;28;20124;-56
2021/11/21 06:16:12;;;;;;;25.65;15.60;;;102.60;2227.20;;;;;;5029965;28;20041;-56
2021/11/21 06:18:38;;;;;;;46.83;31.30;;;102.70;2227.20;;;;;;5030185;28;20021;-56
2021/11/21 06:21:03;;;;;;;120.70;76.40;;;102.80;2227.20;;;;;;5016993;28;20041;-56
2021/11/21 06:23:33;;;;;;;126.95;80.43;;;102.90;2227.20;;;;;;5010228;28;20056;-56
2021/11/21 06:26:00;;;;;;;55.72;40.08;;;102.90;2227.20;;;;;;5010136;28;20476;-56
2021/11/21 06:28:26;;;;;;;43.63;29.05;;;102.90;2227.20;;;;;;5009879;28;20030;-55
2021/11/21 06:30:52;;;;;;;53.70;36.08;;;102.90;2227.20;;;;;;5012305;28;20096;-55
2021/11/21 06:33:19;;;;;;;44.33;31.75;;;102.80;2227.20;;;;;;5012600;28;20028;-55
2021/11/21 06:35:45;;;;;;;65.15;44.70;;;102.90;2227.20;;;;;;5019033;28;20026;-56
2021/11/21 06:38:11;;;;;;;49.85;35.25;;;102.90;2227.20;;;;;;5009906;28;20014;-56
2021/11/21 06:40:37;;;;;;;29.67;19.30;;;102.90;2227.20;;;;;;5010226;28;20026;-56
2021/11/21 06:43:03;;;;;;;41.30;27.02;;;103.00;2227.20;;;;;;5009902;28;20483;-55
2021/11/21 06:45:29;;;;;;;24.48;16.98;;;103.00;2227.20;;;;;;5008598;28;20567;-56
2021/11/21 06:47:55;;;;;;;46.80;29.00;;;103.00;2227.20;;;;;;5010088;28;20065;-56
2021/11/21 06:50:21;;;;;;;39.03;27.77;;;103.10;2227.20;;;;;;5009760;28;20061;-56
2021/11/21 06:52:47;;;;;;;30.35;19.77;;;103.10;2227.20;;;;;;5009837;28;20030;-55
2021/11/21 06:55:16;;;;;;;105.43;63.65;;;103.20;2227.20;;;;;;5009842;28;20083;-56
2021/11/21 06:57:42;;;;;;;90.57;59.42;;;103.30;2227.20;;;;;;5009616;28;20034;-56
2021/11/21 07:00:13;;;;;;;77.78;48.15;;;128.00;2252.80;;;;;;5009495;28;20134;-56
2021/11/21 07:02:38;;;;;;;69.28;47.40;;;128.00;2252.80;;;;;;5009752;28;20046;-56
2021/11/21 07:05:05;;;;;;;91.05;55.67;;;128.10;2252.80;;;;;;5009652;28;20022;-56
2021/11/21 07:07:31;;;;;;;85.25;47.08;;;128.00;2252.80;;;;;;5009818;28;20476;-62
2021/11/21 07:09:57;;;;;;;78.80;48.25;;;128.10;2252.80;;;;;;5009953;28;20026;-61
2021/11/21 07:12:22;;;;;;;75.00;44.72;;;128.10;2252.80;;;;;;5009754;28;20030;-60
2021/11/21 07:14:48;;;;;;;152.65;113.38;;;128.30;2252.80;;;;;;5012942;28;20071;-61
2021/11/21 07:17:14;;;;;;;198.75;139.50;;;128.50;2252.80;;;;;;5013240;28;20030;-62
2021/11/21 07:19:40;;;;;;;128.77;87.97;;;128.50;2252.80;;;;;;5013096;28;20022;-60
2021/11/21 07:22:06;;;;;;;197.50;133.88;;;128.40;2252.80;;;;;;5013090;28;20038;-61
2021/11/21 07:24:33;;;;;;;172.65;112.15;;;128.30;2252.80;;;;;;5012846;28;20033;-63
2021/11/21 07:26:59;;;;;;;142.90;96.18;;;128.40;2252.80;;;;;;5013197;28;20060;-60
2021/11/21 07:29:29;;;;;;;141.88;82.80;;;128.50;2252.80;;;;;;5012949;28;20037;-61
2021/11/21 07:32:00;;;;;;;100.82;63.35;;;128.60;2252.80;;;;;;5012978;28;20400;-58
2021/11/21 07:34:26;;;;;;;53.38;30.95;;;128.70;2252.80;;;;;;5012844;28;20034;-58
2021/11/21 07:36:52;;;;;;;32.83;22.95;;;128.90;2252.80;;;;;;5012906;28;20030;-59
2021/11/21 07:39:18;;;;;;;26.77;19.80;;;154.10;2252.80;;;;;;5012843;28;20113;-59
2021/11/21 07:41:43;;;;;;;25.08;17.85;;;179.90;2252.80;;;;;;5012551;28;20038;-59
2021/11/21 07:44:09;;;;;;;19.30;14.55;;;230.80;2252.80;;;;;;5012737;28;20022;-59
2021/11/21 07:46:36;;;;;;;20.95;16.65;;;281.90;2278.40;;;;;;5012765;28;20064;-60
2021/11/21 07:49:02;;;;;;;24.65;18.80;;;307.80;2304.00;;;;;;5012366;28;20037;-59
2021/11/21 07:51:28;;;;;;;19.40;16.13;;;332.90;2329.60;;;;;;5012517;28;20124;-59
2021/11/21 07:53:53;;;;;;;27.05;20.90;;;333.70;2329.60;;;;;;5012384;28;20053;-61
2021/11/21 07:56:20;;;;;;;33.92;24.98;;;359.30;2329.60;;;;;;5012611;28;20022;-60
2021/11/21 07:58:45;;;;;;;25.70;21.52;;;409.70;2355.20;;;;;;5012402;28;20521;-58
2021/11/21 08:01:11;;;;;;;24.77;20.27;;;435.30;2201.60;;;;;;5012021;28;20142;-61
2021/11/21 08:03:37;;;;;;;26.08;21.20;;;460.80;2073.60;;;;;;5012389;28;20372;-60
2021/11/21 08:06:03;;;;;;;37.63;28.10;;;460.80;2022.40;;;;;;5012060;28;20060;-61
2021/11/21 08:08:29;;;;;;;79.90;56.33;;;460.90;1996.80;;;;;;5012566;28;20057;-61
2021/11/21 08:10:55;;;;;;;46.17;34.08;;;461.50;1945.60;;;;;;5012308;28;20033;-61
2021/11/21 08:13:21;;;;;;;36.95;33.00;;;486.50;1920.00;;;;;;5012079;28;20372;-60
2021/11/21 08:15:47;;;;;;;38.20;29.58;;;487.00;1868.80;;;;;;5012063;28;20058;-60
2021/11/21 08:18:16;;;;;;;60.42;53.85;;;512.20;1817.60;;;;;;5011902;28;20033;-61
2021/11/21 08:20:42;;;;;;;110.20;95.82;;;486.60;1843.20;;;;;;5012036;28;20407;-60
2021/11/21 08:23:08;;;;;;;119.30;99.65;;;460.80;1920.00;;;;;;5012419;28;20030;-60
2021/11/21 08:25:33;;;;;;;113.43;96.47;;;435.60;1971.20;;;;;;5011718;28;20492;-61
2021/11/21 08:27:59;;;;;;;116.60;92.70;;;384.90;2073.60;;;;;;5012126;28;20100;-59
2021/11/21 08:30:25;;;;;;;129.40;112.85;;;384.00;2176.00;;;;;;5011707;28;20380;-61
2021/11/21 08:32:51;;;;;;;121.00;106.40;;;384.60;2150.40;;;;;;5011616;28;20080;-61
2021/11/21 08:35:18;;;;;;;126.38;112.47;;;409.90;2124.80;;;;;;5011700;28;20061;-60
2021/11/21 08:37:43;;;;;;;122.30;108.05;;;410.30;2099.20;;;;;;5011796;28;20035;-60
2021/11/21 08:40:10;;;;;;;122.68;109.57;;;410.50;2073.60;;;;;;5011903;28;20387;-60
2021/11/21 08:42:37;;;;;;;114.97;100.63;;;435.70;2022.40;;;;;;5011769;28;20508;-60
2021/11/21 08:45:05;;;;;;;116.47;103.57;;;461.00;1971.20;;;;;;5011433;28;20033;-60
2021/11/21 08:47:31;;;;;;;80.80;71.65;;;461.60;1945.60;;;;;;5011264;28;20124;-60
2021/11/21 08:49:57;;;;;;;86.72;77.25;;;486.70;1817.60;;;;;;5011372;28;20116;-61
2021/11/21 08:52:22;;;;;;;77.50;69.35;;;486.80;1843.20;;;;;;5009293;28;20029;-61
2021/11/21 08:54:48;;;;;;;70.82;63.47;;;487.20;1766.40;;;;;;5010013;28;20357;-61
2021/11/21 08:57:14;;;;;;;54.38;48.63;;;512.20;1740.80;;;;;;5009701;28;20021;-59
2021/11/21 08:59:40;;;;;;;52.92;47.25;;;512.00;1740.80;;;;;;5009699;28;20445;-61
2021/11/21 09:02:05;;;;;;;56.35;50.08;;;487.30;1766.40;;;;;;5009570;28;20088;-60
2021/11/21 09:04:31;;;;;;;60.08;53.88;;;486.90;1792.00;;;;;;5009099;28;20436;-61
2021/11/21 09:06:57;;;;;;;66.70;59.53;;;512.60;1740.80;;;;;;5010084;28;20049;-60
2021/11/21 09:09:23;;;;;;;81.18;72.38;;;538.20;1689.60;;;;;;5028881;28;20116;-60
2021/11/21 09:11:48;;;;;;;86.55;73.25;;;512.80;1689.60;;;;;;5023338;28;20100;-60
2021/11/21 09:14:14;;;;;;;68.03;60.55;;;512.70;1715.20;;;;;;5028871;28;20100;-61
2021/11/21 09:16:41;;;;;;;110.68;100.63;;;512.40;1715.20;;;;;;5028449;28;20728;-59
2021/11/21 09:19:07;;;;;;;161.38;144.32;;;537.80;1689.60;;;;;;5028614;28;20362;-60
2021/11/21 09:21:33;;;;;;;85.13;75.97;;;563.30;1638.40;;;;;;5028308;28;20475;-60
2021/11/21 09:23:59;;;;;;;77.50;69.25;;;538.30;1664.00;;;;;;5028587;28;20060;-61
2021/11/21 09:26:26;;;;;;;72.63;64.68;;;538.50;1638.40;;;;;;5028063;28;20102;-60
2021/11/21 09:28:53;;;;;;;75.88;67.70;;;563.20;1638.40;;;;;;5028380;28;20033;-61
2021/11/21 09:31:18;;;;;;;86.75;77.68;;;512.90;1664.00;;;;;;5027894;28;20029;-60
2021/11/21 09:33:44;;;;;;;64.13;57.25;;;512.60;1664.00;;;;;;5027562;28;20498;-60
2021/11/21 09:36:10;;;;;;;78.22;69.88;;;487.00;1740.80;;;;;;5021244;28;20507;-60
2021/11/21 09:38:36;;;;;;;49.20;42.92;;;512.70;1664.00;;;;;;5028423;28;20065;-60
2021/11/21 09:41:02;;;;;;;76.97;66.45;;;512.50;1664.00;;;;;;5030868;28;20065;-61
2021/11/21 09:43:28;;;;;;;73.13;60.65;;;461.60;1817.60;;;;;;5030738;28;20112;-59
2021/11/21 09:45:54;;;;;;;80.20;64.75;;;460.90;1868.80;;;;;;5030074;28;20021;-59
2021/11/21 09:48:20;;;;;;;106.03;80.88;;;435.70;1894.40;;;;;;5030291;28;20025;-60
2021/11/21 09:50:46;;;;;;;73.95;59.95;;;410.00;2022.40;;;;;;5030240;28;20537;-59
2021/11/21 09:53:13;;;;;;;69.40;52.70;;;384.50;2073.60;;;;;;5030186;28;20467;-59
2021/11/21 09:55:40;;;;;;;72.30;53.42;;;359.30;2150.40;;;;;;5030448;28;20021;-59
2021/11/21 09:58:06;;;;;;;62.22;50.08;;;359.00;2227.20;;;;;;5030428;28;20120;-59
2021/11/21 10:00:33;;;;;;;75.65;52.75;;;358.80;2252.80;;;;;;5029585;28;20454;-60
2021/11/21 10:03:05;;;;;;;57.42;44.72;;;358.40;2329.60;;;;;;5030038;28;20060;-59
2021/11/21 10:05:37;;;;;;;66.40;51.92;;;333.70;2329.60;;;;;;5029942;28;20017;-59
2021/11/21 10:08:14;;;;;;;55.13;42.40;;;333.40;2329.60;;;;;;5030059;28;20585;-59
2021/11/21 10:10:50;;;;;;;68.40;49.85;;;333.40;2329.60;;;;;;5030220;28;20033;-59
2021/11/21 10:13:36;;;;;;;62.22;48.05;;;333.20;2329.60;;;;;;5030009;28;20476;-59
2021/11/21 10:16:19;;;;;;;59.42;42.88;;;333.40;2329.60;;;;;;5029629;28;20083;-59
2021/11/21 10:18:49;;;;;;;56.63;41.17;;;333.40;2329.60;;;;;;5029648;28;20028;-59
2021/11/21 10:21:17;;;;;;;48.70;34.92;;;333.20;2329.60;;;;;;5029692;28;20091;-59
2021/11/21 10:23:43;;;;;;;52.00;35.58;;;333.10;2329.60;;;;;;5029752;28;20025;-59
2021/11/21 10:26:20;;;;;;;51.03;36.97;;;333.30;2329.60;;;;;;5030018;28;20116;-59
2021/11/21 10:28:46;;;;;;;44.20;31.40;;;333.30;2329.60;;;;;;5029711;28;20026;-60
2021/11/21 10:31:16;;;;;;;42.97;28.10;;;333.40;2329.60;;;;;;5029862;28;20033;-58
2021/11/21 10:33:53;;;;;;;48.47;34.13;;;333.60;2329.60;;;;;;5029835;28;20026;-59
2021/11/21 10:36:22;;;;;;;55.17;39.47;;;333.50;2329.60;;;;;;5029944;28;20112;-59
2021/11/21 10:39:08;;;;;;;50.53;37.78;;;333.40;2329.60;;;;;;5029887;28;20021;-59
2021/11/21 10:41:37;;;;;;;59.40;44.92;;;333.20;2329.60;;;;;;5029846;28;20483;-60
2021/11/21 10:44:08;;;;;;;63.83;42.50;;;333.30;2329.60;;;;;;5029646;28;20470;-59
2021/11/21 10:46:44;;;;;;;37.72;24.25;;;333.40;2329.60;;;;;;5029417;28;20079;-59
2021/11/21 10:49:20;;;;;;;55.72;36.42;;;333.20;2329.60;;;;;;5032398;28;20045;-59
2021/11/21 10:51:50;;;;;;;58.55;36.70;;;333.30;2329.60;;;;;;5033410;28;20037;-59
2021/11/21 10:54:23;;;;;;;64.10;41.53;;;333.30;2329.60;;;;;;5033508;28;20030;-59
2021/11/21 10:56:51;;;;;;;46.75;34.63;;;333.50;2329.60;;;;;;5033480;28;20030;-59
2021/11/21 10:59:48;;;;;;;47.35;33.78;;;333.50;2329.60;;;;;;5033352;28;20029;-59
2021/11/21 11:02:19;;;;;;;52.85;32.80;;;333.60;2329.60;;;;;;5032994;28;20049;-60
2021/11/21 11:05:05;;;;;;;38.88;27.85;;;333.60;2329.60;;;;;;5033296;28;20080;-60
2021/11/21 11:07:44;;;;;;;42.58;28.60;;;333.50;2329.60;;;;;;5032945;28;20037;-60
2021/11/21 11:10:23;;;;;;;41.45;26.55;;;333.50;2329.60;;;;;;5033206;28;20044;-60
2021/11/21 11:12:55;;;;;;;48.72;32.38;;;333.70;2329.60;;;;;;5032914;28;20617;-60
2021/11/21 11:15:22;;;;;;;36.85;23.67;;;333.70;2329.60;;;;;;5033061;28;20104;-60
2021/11/21 11:17:48;;;;;;;27.98;19.92;;;358.40;2329.60;;;;;;5032977;28;20491;-60
2021/11/21 11:20:17;;;;;;;32.15;21.85;;;358.40;2329.60;;;;;;5032913;28;20479;-60
2021/11/21 11:22:44;;;;;;;39.78;26.08;;;358.40;2329.60;;;;;;5032777;28;20415;-60
2021/11/21 11:25:20;;;;;;;43.90;28.10;;;358.40;2329.60;;;;;;5032969;28;20088;-60
2021/11/21 11:27:45;;;;;;;37.80;25.92;;;333.70;2329.60;;;;;;5064752;28;20428;-60
2021/11/21 11:30:13;;;;;;;48.22;36.63;;;358.40;2329.60;;;;;;5032533;28;20032;-59
2021/11/21 11:32:43;;;;;;;56.47;38.50;;;358.50;2329.60;;;;;;5032815;28;20025;-59
2021/11/21 11:35:17;;;;;;;81.45;52.40;;;358.60;2329.60;;;;;;5032967;28;20037;-59
2021/11/21 11:38:19;;;;;;;58.20;39.40;;;358.60;2329.60;;;;;;5032555;28;20108;-60
2021/11/21 11:40:54;;;;;;;44.30;28.33;;;358.60;2329.60;;;;;;5032160;28;20053;-60
2021/11/21 11:43:23;;;;;;;40.60;26.77;;;358.70;2329.60;;;;;;5032644;28;20025;-60
2021/11/21 11:45:50;;;;;;;55.10;35.28;;;358.70;2329.60;;;;;;5032472;28;20113;-59
2021/11/21 11:48:37;;;;;;;45.80;30.00;;;358.80;2329.60;;;;;;5032399;28;20079;-60
2021/11/21 11:51:11;;;;;;;51.83;31.75;;;358.80;2329.60;;;;;;5032170;28;20052;-60
2021/11/21 11:53:43;;;;;;;40.25;27.52;;;358.80;2329.60;;;;;;5032543;28;20052;-60
2021/11/21 11:56:15;;;;;;;32.90;20.00;;;359.30;2329.60;;;;;;5032381;28;20026;-60